Airfield :
LOGIN :

Register | Disclaimer

   EN    FR    IT 

 










Legend :    VFR   Marginal VFR   IFR   Intensive IFR   Very Intensive IFR
Visi :
Ceiling :
>= 8 km
>= 3000ft
5 to 8 km
1000 to 3000 ft
1500m to 5 km
500 to 1000 ft
800 to 1500m
200 to 500 ft
< 800m
< 200 ft
Symbols :   Thunderstorms  Fog  Heavy snow  Heavy precipitations  Wind > 20 kt
SIGMETs :     Misc.  Thunderstorms  Icing  Turbulence  Mountain Waves  Volcanic Ashes







- Airport Elevation : 26 ft
- IATA code : GLA
- Download approach charts


EGPF - Glasgow

CURRENT METAR :
  • 261920Z AUTO 25016KT 3700 RA SCT019/// BKN026/// OVC032/// //////TCU 11/08 Q1005

EXPIRED METARs :
  • 261850Z AUTO 24016KT 9999 SCT025 SCT031 BKN039 12/08 Q1006
  • 261820Z AUTO 23015KT 9999 BKN035 OVC043 12/07 Q1006
  • 261750Z AUTO 24017KT 9999 BKN037 OVC048 12/07 Q1006
  • 261720Z AUTO 24015G25KT 9999 BKN042 13/07 Q1006
  • 261650Z AUTO 25015KT 9999 BKN029 BKN040 OVC049 13/07 Q1006

TAF AMD TAF EGPF
Valid from the 26 at 19:00 until the 27 at 18:00 UTC


261920Z 2619/2718 26017KT 9999 SCT006 BKN016
TEMPO 2619/2621 27020G30KT 3000 RA BKN010
PROB40
TEMPO 2621/2706 8000 -RA -SHRA BKN012
BECMG 2700/2703 29007KT
BECMG 2712/2715 09010KT
TEMPO 2712/2718 6000 SHRA
ATIS : +44 141 887 7449
No reported NOTAMs for that airfield.
2 SIGMETs reported for the Scottish FIR (EGPX) :
 
Severe mountain waves
EGPX SIGMET 02 VALID 261900/262300 EGRR
EGPX SCOTTISH FIR SEV MTW FCST SE OF LINE N5523 W00711 - N5832 E00227 FL030/150 STNR NC=
Severe mountain waves
EGPX SIGMET 01 VALID 261540/261900 EGRR
EGPX SCOTTISH FIR SEV MTW FCST SE OF LINE N5523 W00711 - N5832 E00227 FL030/150 STNR NC=



MET'MAP, your aeronautical weather chart ! - Copyright ORBIFLY December 2007 - Disclaimer

ORBIFLY MET'MAP TEAM :

Programming & Development : Alexandra Zaïnal
Concept & Development : Baudouin d'Aumeries
Co-Development & Prog : Marc-Olivier Méhu
Technical & hardware support : Manuel Goepfert

Contact : metmap@orbifly.com




SOURCES & CREDITS :

   NOAA